This is the latest recevied weather packets stored in our database for station/object WMKK. If no packets are shown the sender has not sent any weather packets the latest 10 day(s).
| Time | Temp. | Humidity | Pressure | Rain* | Wind** | Luminosity | Snow |
|---|---|---|---|---|---|---|---|
| 1777605010 | 32.78° C | 62% | 1010 hPa | - | - | - | - |
| 1777603192 | 31.67° C | 66% | 1010 hPa | - | - | - | - |
| 1777601411 | 30.56° C | 66% | 1010 hPa | - | - | - | - |
| 1777587010 | 25.56° C | 94% | 1007 hPa | - | - | - | - |
| 1777583418 | 26.67° C | 88% | 1007 hPa | - | - | - | - |
| 1777579811 | 26.67° C | 88% | 1008 hPa | - | - | - | - |
| 1777576210 | 26.67° C | 94% | 1008 hPa | - | - | - | - |
| 1777572610 | 26.67° C | 94% | 1009 hPa | - | - | - | - |
| 1777563592 | 28.89° C | 83% | 1010 hPa | - | - | - | - |
| 1777558210 | 28.89° C | 79% | 1009 hPa | - | - | - | - |
| 1777556394 | 27.78° C | 83% | 1008 hPa | - | - | - | - |
| 1777554617 | 27.78° C | 83% | 1008 hPa | - | - | - | - |
| 1777547410 | 28.89° C | 79% | 1006 hPa | - | - | - | - |
| 1777543809 | 30° C | 74% | 1005 hPa | - | - | - | - |
| 1777541991 | 30.56° C | 74% | 1005 hPa | - | - | - | - |
| 1777540791 | 30.56° C | 74% | 1006 hPa | - | - | - | - |
| 1777540217 | 30.56° C | 74% | 1006 hPa | - | - | - | - |
| 1777536609 | 32.78° C | 70% | 1005 hPa | - | - | - | - |
| 1777534791 | 32.78° C | 70% | 1006 hPa | - | - | - | - |
| 1777533009 | 32.78° C | 70% | 1007 hPa | - | - | - | - |
| 1777531191 | 33.89° C | 66% | 1007 hPa | - | - | - | - |
| 1777529409 | 33.89° C | 66% | 1007 hPa | - | - | - | - |
| 1777527591 | 32.78° C | 66% | 1008 hPa | - | - | - | - |
| 1777525816 | 31.67° C | 70% | 1008 hPa | - | - | - | - |
| 1777523994 | 31.67° C | 70% | 1009 hPa | - | - | - | - |
* Rain since midnight (hover to see other rain measurements)
** Current wind speed in m/s (hover to see current wind gust speed)